Weather History for KLNL - December, 2013

Change the Weather History Date:

Tuesday, December 31, 2013

  Actual Average (KEGV) Record (KEGV)
Temperature  
Mean Temperature -15 °F -  
Max Temperature -2 °F 20 °F 42 °F (2004)
Min Temperature -28 °F 4 °F -22 °F (2013)
Degree Days  
Heating Degree Days 80    
Moisture  
Dew Point -20 °F    
Average Humidity 73    
Maximum Humidity 80    
Minimum Humidity 61    
Precipitation  
Precipitation 0.00 in - - ()
Sea Level Pressure  
Sea Level Pressure 30.10 in    
Wind  
Wind Speed 3 mph (West)    
Max Wind Speed 10 mph    
Max Gust Speed 18 mph    
Visibility 10 miles    
Events Snow    
Averages and records for this station are not official NWS values.
T = Trace of Precipitation, MM = Missing Value Source: NWS Daily Summary

Daily Weather History Graph

Daily Weather History Graph

Search for Another Location

Airport or City:

Trip Planner

Search our weather history database for the weather conditions in past years. The results will help you decide how hot, cold, wet, or windy it might be!

Date:

Astronomy

Dec. 31, 2013 Rise Set
Actual Time 7:39 AM CST 4:20 PM CST
Civil Twilight 7:04 AM CST 4:55 PM CST
Nautical Twilight 6:26 AM CST 5:33 PM CST
Astronomical Twilight 5:50 AM CST 6:09 PM CST
Moon 6:29 AM CST (12/31) 3:59 PM CST (12/31)
Length of Visible Light 9h 50m
Length of Day
8h 41m
Waning Crescent, 1% of the Moon is Illuminated
Dec 31
Waning Crescent
Jan 1
New
Jan 7
First Quarter
Jan 15
Full
Jan 23
Last Quarter

Hourly Weather History & Observations

Time (CST) Temp. Windchill Dew Point Humidity Pressure Visibility Wind Dir Wind Speed Gust Speed Precip Events Conditions
12:15 AM -10.7 °F -20.0 °F -15.3 °F 80% 30.01 in 10.0 mi West 3.5 mph - N/A   Clear
12:35 AM -11.2 °F -23.0 °F -15.9 °F 80% 30.00 in 10.0 mi West 4.6 mph - N/A   Clear
12:55 AM -11.6 °F -21.0 °F -16.2 °F 80% 30.00 in 10.0 mi West 3.5 mph - N/A   Clear
1:15 AM -13.9 °F - -19.1 °F 77% 29.99 in 10.0 mi Calm Calm - N/A   Clear
1:35 AM -16.6 °F - -22.2 °F 76% 29.99 in 10.0 mi Calm Calm - N/A   Clear
1:55 AM -19.7 °F - -25.8 °F 73% 30.00 in 10.0 mi Calm Calm - N/A   Clear
2:15 AM -21.3 °F - -27.4 °F 73% 29.99 in 10.0 mi Calm Calm - N/A   Clear
2:35 AM -22.0 °F - -28.3 °F 73% 30.00 in 10.0 mi Calm Calm - N/A   Clear
2:55 AM -23.8 °F -35.0 °F -29.6 °F 74% 30.00 in 10.0 mi West 3.5 mph - N/A   Clear
3:15 AM -24.3 °F - -30.5 °F 73% 30.01 in 10.0 mi Calm Calm - N/A   Scattered Clouds
3:35 AM -23.4 °F - -29.6 °F 73% 30.00 in 10.0 mi Calm Calm - N/A   Mostly Cloudy
3:55 AM -24.0 °F - -30.3 °F 72% 30.00 in 10.0 mi Calm Calm - N/A Snow Light Snow
4:15 AM -24.3 °F - -30.3 °F 74% 30.00 in 10.0 mi Calm Calm - N/A   Clear
4:35 AM -25.6 °F - -32.1 °F 71% 30.00 in 10.0 mi Calm Calm - N/A   Scattered Clouds
4:55 AM -26.0 °F - -32.3 °F 72% 30.00 in 7.0 mi Calm Calm - N/A Snow Light Snow
5:15 AM -26.0 °F - -32.1 °F 73% 30.00 in 10.0 mi Calm Calm - N/A   Scattered Clouds
5:35 AM -26.7 °F - -33.0 °F 72% 30.01 in 10.0 mi Calm Calm - N/A   Clear
5:55 AM -27.2 °F - -34.4 °F 69% 30.01 in 10.0 mi Calm Calm - N/A   Clear
6:15 AM -27.9 °F - -35.0 °F 69% 30.01 in 10.0 mi Calm Calm - N/A   Clear
6:35 AM -28.7 °F -40.6 °F -35.7 °F 69% 30.02 in 10.0 mi West 3.5 mph - N/A   Clear
6:55 AM -21.8 °F -32.8 °F -27.8 °F 74% 30.01 in 10.0 mi WSW 3.5 mph - N/A   Clear
7:15 AM -20.7 °F - -26.9 °F 73% 30.02 in 10.0 mi Calm Calm - N/A   Clear
7:35 AM -18.6 °F -29.1 °F -23.8 °F 77% 30.02 in 10.0 mi WSW 3.5 mph - N/A   Clear
7:55 AM -15.2 °F -25.2 °F -20.4 °F 77% 30.02 in 10.0 mi West 3.5 mph - N/A   Clear
8:15 AM -13.2 °F -22.9 °F -18.4 °F 77% 30.02 in 10.0 mi West 3.5 mph - N/A   Clear
8:35 AM -11.4 °F -23.2 °F -16.2 °F 79% 30.03 in 10.0 mi West 4.6 mph - N/A   Clear
8:55 AM -10.3 °F -23.8 °F -15.0 °F 80% 30.03 in 10.0 mi West 5.8 mph - N/A   Clear
9:15 AM -8.9 °F -25.0 °F -13.9 °F 79% 30.03 in 10.0 mi West 8.1 mph - N/A   Clear
9:35 AM -8.3 °F -23.0 °F -13.2 °F 79% 30.04 in 10.0 mi WNW 6.9 mph - N/A   Clear
9:55 AM -7.1 °F -21.4 °F -12.3 °F 78% 30.05 in 10.0 mi West 6.9 mph - N/A   Clear
10:15 AM -6.2 °F -22.8 °F -11.7 °F 77% 30.07 in 10.0 mi West 9.2 mph - N/A   Clear
10:35 AM -5.1 °F -20.4 °F -11.6 °F 74% 30.07 in 10.0 mi WNW 8.1 mph - N/A   Clear
10:55 AM -4.4 °F -16.7 °F -11.6 °F 71% 30.07 in 10.0 mi WNW 5.8 mph 18.4 mph N/A   Clear
11:15 AM -4.2 °F -18.0 °F -12.1 °F 69% 30.07 in 10.0 mi WNW 6.9 mph 17.3 mph N/A   Clear
11:35 AM -4.0 °F -20.2 °F -12.3 °F 68% 30.07 in 7.0 mi NNW 9.2 mph 16.1 mph N/A   Scattered Clouds
11:55 AM -3.3 °F -18.2 °F -11.9 °F 67% 30.08 in 7.0 mi West 8.1 mph 16.1 mph N/A   Mostly Cloudy
12:15 PM -3.1 °F -20.1 °F -12.1 °F 65% 30.08 in 7.0 mi WNW 10.4 mph - N/A   Overcast
12:35 PM -3.1 °F -17.9 °F -11.9 °F 66% 30.09 in 4.0 mi NW 8.1 mph - N/A   Haze
12:55 PM -2.6 °F -18.4 °F -11.9 °F 64% 30.10 in 5.0 mi WNW 9.2 mph 16.1 mph N/A   Haze
1:15 PM -3.3 °F -18.2 °F -11.9 °F 67% 30.10 in 4.0 mi West 8.1 mph - N/A   Haze
1:35 PM -3.1 °F -19.1 °F -13.0 °F 63% 30.10 in 7.0 mi WNW 9.2 mph 16.1 mph N/A   Mostly Cloudy
1:55 PM -2.7 °F -18.6 °F -13.2 °F 61% 30.11 in 10.0 mi NW 9.2 mph 17.3 mph N/A   Scattered Clouds
2:15 PM -3.1 °F -16.7 °F -13.5 °F 61% 30.11 in 10.0 mi WNW 6.9 mph - N/A   Clear
2:35 PM -3.1 °F -16.7 °F -13.5 °F 61% 30.11 in 10.0 mi NW 6.9 mph 16.1 mph N/A   Clear
2:55 PM -3.3 °F -19.3 °F -13.7 °F 61% 30.12 in 10.0 mi WNW 9.2 mph 16.1 mph N/A   Clear
3:15 PM -3.6 °F -18.6 °F -14.1 °F 61% 30.13 in 10.0 mi NW 8.1 mph - N/A   Clear
3:35 PM -4.0 °F -16.3 °F -14.1 °F 62% 30.14 in 10.0 mi NW 5.8 mph - N/A   Clear
3:55 PM -5.3 °F -17.8 °F -14.4 °F 65% 30.14 in 10.0 mi WNW 5.8 mph - N/A   Clear
4:15 PM -6.2 °F -17.1 °F -14.8 °F 66% 30.15 in 10.0 mi West 4.6 mph - N/A   Clear
4:35 PM -7.1 °F -18.1 °F -15.0 °F 68% 30.16 in 10.0 mi WNW 4.6 mph - N/A   Clear
4:55 PM -8.7 °F -17.8 °F -15.7 °F 71% 30.17 in 10.0 mi West 3.5 mph - N/A   Clear
5:15 PM -9.8 °F -21.3 °F -16.4 °F 72% 30.17 in 10.0 mi West 4.6 mph - N/A   Clear
5:35 PM -9.8 °F -19.0 °F -16.6 °F 72% 30.18 in 10.0 mi West 3.5 mph - N/A   Clear
5:55 PM -11.2 °F -23.0 °F -17.5 °F 74% 30.18 in 10.0 mi West 4.6 mph - N/A   Clear
6:15 PM -11.9 °F - -18.0 °F 74% 30.19 in 10.0 mi Calm Calm - N/A   Clear
6:35 PM -12.6 °F - -18.8 °F 74% 30.19 in 10.0 mi Calm Calm - N/A   Clear
6:55 PM -13.7 °F -23.5 °F -18.9 °F 77% 30.20 in 10.0 mi West 3.5 mph - N/A   Clear
7:15 PM -13.7 °F - -18.9 °F 77% 30.21 in 10.0 mi Calm Calm - N/A   Clear
7:35 PM -14.8 °F - -20.0 °F 77% 30.22 in 10.0 mi Calm Calm - N/A   Clear
7:55 PM -14.6 °F -24.5 °F -19.7 °F 78% 30.22 in 10.0 mi WSW 3.5 mph - N/A   Clear
8:15 PM -14.1 °F - -19.3 °F 77% 30.23 in 10.0 mi Calm Calm - N/A Snow Light Snow
8:35 PM -15.2 °F - -20.6 °F 77% 30.23 in 10.0 mi Calm Calm - N/A   Clear
8:55 PM -15.7 °F -25.8 °F -20.9 °F 77% 30.24 in 10.0 mi WSW 3.5 mph - N/A   Clear
9:15 PM -15.9 °F -26.0 °F -21.1 °F 77% 30.24 in 10.0 mi West 3.5 mph - N/A   Clear
9:35 PM -15.9 °F -26.0 °F -21.1 °F 77% 30.25 in 10.0 mi West 3.5 mph - N/A Snow Light Snow
9:55 PM -15.2 °F -25.2 °F -20.4 °F 77% 30.25 in 10.0 mi WNW 3.5 mph - N/A   Clear
10:15 PM -15.2 °F -27.6 °F -20.4 °F 77% 30.25 in 10.0 mi WNW 4.6 mph - N/A   Clear
10:35 PM -15.2 °F -25.2 °F -20.6 °F 77% 30.25 in 10.0 mi WNW 3.5 mph - N/A   Clear
10:55 PM -15.2 °F -27.6 °F -20.6 °F 77% 30.26 in 10.0 mi WNW 4.6 mph - N/A   Clear
11:15 PM -15.0 °F -27.4 °F -20.2 °F 77% 30.26 in 10.0 mi WNW 4.6 mph - N/A   Clear
11:35 PM -14.8 °F -24.8 °F -20.2 °F 77% 30.26 in 10.0 mi WNW 3.5 mph - N/A   Clear
11:55 PM -20.6 °F - -27.4 °F 71% 30.26 in 10.0 mi Calm Calm - N/A   Clear